Time;durP1;ratioP1;P1;durP2;ratioP2;P2;SDS_P1;SDS_P2;PMS_P1;PMS_P2;Temp;Humidity;BMP_temperature;BMP_pressure;BME280_temperature;BME280_humidity;BME280_pressure;Samples;Min_cycle;Max_cycle;Signal;HPM_P1;HPM_P2
2023/05/02 00:00:25;;;;;;;3.58;2.80;;;10.30;99.90;;;;;;5076331;28;20446;-72
2023/05/02 00:02:50;;;;;;;5.53;3.03;;;10.30;99.90;;;;;;5058637;28;20085;-72
2023/05/02 00:05:16;;;;;;;4.82;2.95;;;10.20;99.90;;;;;;5078897;28;20028;-72
2023/05/02 00:07:42;;;;;;;5.35;3.10;;;10.20;99.90;;;;;;5085334;28;20118;-72
2023/05/02 00:10:08;;;;;;;4.90;2.97;;;10.10;99.90;;;;;;5100423;28;20054;-72
2023/05/02 00:12:34;;;;;;;4.25;3.28;;;10.10;99.90;;;;;;5079622;28;20031;-72
2023/05/02 00:15:00;;;;;;;4.93;3.30;;;10.10;99.90;;;;;;5078622;28;20164;-71
2023/05/02 00:17:25;;;;;;;4.18;3.22;;;10.10;99.90;;;;;;5074682;28;20594;-72
2023/05/02 00:19:51;;;;;;;3.72;2.65;;;10.00;99.90;;;;;;5078064;28;20036;-72
2023/05/02 00:22:17;;;;;;;5.45;3.10;;;10.00;99.90;;;;;;5060845;28;20027;-72
2023/05/02 00:24:42;;;;;;;5.68;2.65;;;10.00;99.90;;;;;;5063221;28;20041;-72
2023/05/02 00:27:08;;;;;;;5.78;2.65;;;9.90;99.90;;;;;;5074822;28;20074;-72
2023/05/02 00:29:34;;;;;;;5.63;2.97;;;9.90;99.90;;;;;;5050237;28;20119;-71
2023/05/02 00:32:00;;;;;;;3.65;3.10;;;9.80;99.90;;;;;;5067406;28;20455;-72
2023/05/02 00:34:30;;;;;;;3.28;2.90;;;9.80;99.90;;;;;;5058235;28;20036;-72
2023/05/02 00:36:56;;;;;;;3.58;3.08;;;9.70;99.90;;;;;;5076038;28;20031;-72
2023/05/02 00:39:21;;;;;;;4.00;2.92;;;9.70;99.90;;;;;;5078927;28;20495;-71
2023/05/02 00:41:47;;;;;;;4.00;3.08;;;9.70;99.90;;;;;;5057518;28;20024;-72
2023/05/02 00:44:13;;;;;;;7.93;3.50;;;9.70;99.90;;;;;;5076137;28;20566;-72
2023/05/02 00:46:38;;;;;;;3.85;3.15;;;9.70;99.90;;;;;;5058201;28;20032;-72
2023/05/02 00:49:04;;;;;;;4.35;2.63;;;9.70;99.90;;;;;;5056941;28;20039;-71
2023/05/02 00:51:33;;;;;;;4.50;3.20;;;9.70;99.90;;;;;;5069175;28;20445;-72
2023/05/02 00:54:00;;;;;;;5.18;2.80;;;9.60;99.90;;;;;;5068956;28;20253;-72
2023/05/02 00:56:26;;;;;;;7.47;2.78;;;9.60;99.90;;;;;;5066272;28;20031;-71
2023/05/02 00:58:52;;;;;;;3.85;2.92;;;9.60;99.90;;;;;;5077453;28;20028;-72
2023/05/02 01:01:43;;;;;;;4.10;2.95;;;9.60;99.90;;;;;;5076125;28;20031;-72
2023/05/02 01:04:28;;;;;;;6.30;2.97;;;9.50;99.90;;;;;;5058032;28;20569;-72
2023/05/02 01:07:20;;;;;;;3.70;2.80;;;9.50;99.90;;;;;;5059882;28;20128;-72
2023/05/02 01:10:04;;;;;;;4.45;3.20;;;9.50;99.90;;;;;;5072674;28;20088;-72
2023/05/02 01:12:44;;;;;;;4.18;2.60;;;9.50;99.90;;;;;;5072563;28;20061;-72
2023/05/02 01:15:17;;;;;;;5.30;2.75;;;9.40;99.90;;;;;;5049493;28;20165;-72
2023/05/02 01:17:45;;;;;;;3.20;2.63;;;9.30;99.90;;;;;;5072558;28;20468;-72
2023/05/02 01:20:16;;;;;;;5.38;2.95;;;9.20;99.90;;;;;;5048809;28;20142;-71
2023/05/02 01:22:43;;;;;;;5.63;3.63;;;9.10;99.90;;;;;;5070464;28;20024;-71
2023/05/02 01:25:09;;;;;;;3.85;3.30;;;9.00;99.90;;;;;;5078592;28;20505;-72
2023/05/02 01:28:09;;;;;;;5.35;3.30;;;9.00;99.90;;;;;;5078512;28;20033;-72
2023/05/02 01:30:37;;;;;;;5.18;3.53;;;9.00;99.90;;;;;;5054739;28;20028;-72
2023/05/02 01:33:05;;;;;;;6.78;4.10;;;8.90;99.90;;;;;;5079258;28;20613;-71
2023/05/02 01:35:34;;;;;;;5.30;3.60;;;8.90;99.90;;;;;;5064123;28;20040;-72
2023/05/02 01:38:02;;;;;;;6.38;3.70;;;8.90;99.90;;;;;;5072507;28;20020;-72
2023/05/02 01:40:28;;;;;;;4.15;3.17;;;8.90;99.90;;;;;;5076013;28;20050;-72
2023/05/02 01:42:56;;;;;;;5.38;3.63;;;8.90;99.90;;;;;;5044854;28;20119;-71
2023/05/02 01:45:22;;;;;;;5.40;3.88;;;8.90;99.90;;;;;;5043817;28;20500;-73
2023/05/02 01:47:50;;;;;;;9.77;4.03;;;8.80;99.90;;;;;;5054819;28;20499;-72
2023/05/02 01:50:20;;;;;;;6.15;3.17;;;8.80;99.90;;;;;;5048589;28;20111;-72
2023/05/02 01:52:48;;;;;;;5.05;3.63;;;8.80;99.90;;;;;;5054294;28;20108;-72
2023/05/02 01:55:15;;;;;;;4.80;3.80;;;8.80;99.90;;;;;;5055014;28;20102;-72
2023/05/02 01:57:43;;;;;;;4.63;3.38;;;8.90;99.90;;;;;;5041672;28;20106;-72
2023/05/02 02:00:11;;;;;;;4.63;3.35;;;8.90;99.90;;;;;;5053240;28;20050;-72
2023/05/02 02:02:40;;;;;;;5.07;3.40;;;8.80;99.90;;;;;;5054726;28;20028;-71
2023/05/02 02:05:07;;;;;;;4.68;3.25;;;8.80;99.90;;;;;;5056646;28;20420;-71
2023/05/02 02:07:33;;;;;;;6.15;3.50;;;8.80;99.90;;;;;;5054215;28;20480;-71
2023/05/02 02:10:00;;;;;;;6.13;3.65;;;8.80;99.90;;;;;;5054609;28;20182;-72
2023/05/02 02:12:29;;;;;;;5.43;3.50;;;8.80;99.90;;;;;;5053653;28;20021;-71
2023/05/02 02:14:59;;;;;;;5.63;3.47;;;8.80;99.90;;;;;;5036467;28;20182;-71
2023/05/02 02:17:31;;;;;;;5.47;3.35;;;8.80;99.90;;;;;;5038561;28;20024;-71
2023/05/02 02:20:02;;;;;;;4.85;3.22;;;8.80;99.90;;;;;;5055589;28;20219;-71
2023/05/02 02:22:29;;;;;;;6.97;3.85;;;8.70;99.90;;;;;;5045450;28;20071;-71
2023/05/02 02:24:56;;;;;;;6.05;3.20;;;8.70;99.90;;;;;;5044049;28;20407;-71
2023/05/02 02:27:21;;;;;;;5.57;3.50;;;8.70;99.90;;;;;;5035918;28;20485;-71
2023/05/02 02:29:47;;;;;;;6.32;3.45;;;8.60;99.90;;;;;;5035600;28;20072;-71
2023/05/02 02:32:13;;;;;;;6.28;3.35;;;8.50;99.90;;;;;;5054202;28;20502;-71
2023/05/02 02:34:38;;;;;;;4.25;3.40;;;8.50;99.90;;;;;;5060436;28;20659;-71
2023/05/02 02:37:13;;;;;;;5.22;3.58;;;8.50;99.90;;;;;;5055343;28;20025;-72
2023/05/02 02:39:47;;;;;;;4.63;3.33;;;8.50;99.90;;;;;;5058382;28;20111;-71
2023/05/02 02:42:14;;;;;;;5.88;3.60;;;8.40;99.90;;;;;;5059522;28;20029;-71
2023/05/02 02:45:02;;;;;;;5.72;4.00;;;8.40;99.90;;;;;;5080391;28;20036;-71
2023/05/02 02:47:41;;;;;;;5.50;3.50;;;8.40;99.90;;;;;;5059178;28;20037;-71
2023/05/02 02:50:57;;;;;;;5.90;3.20;;;8.40;99.90;;;;;;5043333;28;20028;-71
2023/05/02 02:53:39;;;;;;;3.83;3.13;;;8.40;99.90;;;;;;4975736;28;20093;-71
2023/05/02 02:56:12;;;;;;;4.20;3.22;;;8.40;99.90;;;;;;4963093;28;20402;-71
2023/05/02 02:58:56;;;;;;;5.00;3.35;;;8.40;99.90;;;;;;5022635;28;20156;-72
2023/05/02 03:01:24;;;;;;;5.38;3.30;;;8.40;99.90;;;;;;5068157;28;20103;-71
2023/05/02 03:03:50;;;;;;;6.05;3.63;;;8.40;99.90;;;;;;5077764;28;20534;-71
2023/05/02 03:06:20;;;;;;;5.82;3.70;;;8.30;99.90;;;;;;5062634;28;20136;-71
2023/05/02 03:08:45;;;;;;;5.10;3.28;;;8.30;99.90;;;;;;5081166;28;20544;-71
2023/05/02 03:11:11;;;;;;;4.40;3.10;;;8.30;99.90;;;;;;5067209;28;20031;-71
2023/05/02 03:13:37;;;;;;;5.90;3.47;;;8.30;99.90;;;;;;5073384;28;20592;-71
2023/05/02 03:16:35;;;;;;;5.43;3.63;;;8.20;99.90;;;;;;5079578;28;20028;-72
2023/05/02 03:19:02;;;;;;;3.65;2.90;;;8.20;99.90;;;;;;5069813;28;20024;-72
2023/05/02 03:21:30;;;;;;;4.57;3.08;;;8.20;99.90;;;;;;5078409;28;20054;-71
2023/05/02 03:24:00;;;;;;;4.03;2.85;;;8.10;99.90;;;;;;5080812;28;20016;-73
2023/05/02 03:26:26;;;;;;;5.07;3.10;;;8.10;99.90;;;;;;5068594;28;20036;-72
2023/05/02 03:28:52;;;;;;;4.70;3.00;;;8.10;99.90;;;;;;5073532;28;20024;-71
2023/05/02 03:31:17;;;;;;;7.32;3.85;;;8.10;99.90;;;;;;5060278;28;20036;-72
2023/05/02 03:33:43;;;;;;;3.58;2.80;;;8.00;99.90;;;;;;5075457;28;20089;-74
2023/05/02 03:36:09;;;;;;;5.40;2.88;;;8.00;99.90;;;;;;5074811;28;20035;-72
2023/05/02 03:38:35;;;;;;;6.00;3.20;;;7.90;99.90;;;;;;5046166;28;20361;-72
2023/05/02 03:41:02;;;;;;;4.60;3.17;;;7.90;99.90;;;;;;5038483;28;20217;-72
2023/05/02 03:43:27;;;;;;;7.10;3.50;;;7.90;99.90;;;;;;5075013;28;20051;-71
2023/05/02 03:45:53;;;;;;;6.53;3.67;;;7.90;99.90;;;;;;5073201;28;20066;-72
2023/05/02 03:48:19;;;;;;;4.35;3.70;;;7.80;99.90;;;;;;5045488;28;20078;-72
2023/05/02 03:50:44;;;;;;;7.07;4.13;;;7.80;99.90;;;;;;5051658;28;20025;-72
2023/05/02 03:53:10;;;;;;;5.45;3.80;;;7.80;99.90;;;;;;5073667;28;20570;-71
2023/05/02 03:55:39;;;;;;;4.50;3.55;;;7.80;99.90;;;;;;5077376;28;20028;-72
2023/05/02 03:58:09;;;;;;;6.97;4.20;;;7.80;99.90;;;;;;5077905;28;20112;-72
2023/05/02 04:00:35;;;;;;;6.13;3.92;;;7.80;99.90;;;;;;5075318;28;20503;-72
2023/05/02 04:03:01;;;;;;;5.55;4.40;;;7.70;99.90;;;;;;5073798;28;20059;-72
2023/05/02 04:05:27;;;;;;;5.85;4.18;;;7.70;99.90;;;;;;5057731;28;20073;-71
2023/05/02 04:07:53;;;;;;;5.78;3.85;;;7.70;99.90;;;;;;5083906;28;20115;-72
2023/05/02 04:10:19;;;;;;;8.93;4.28;;;7.70;99.90;;;;;;5077196;28;20143;-72
2023/05/02 04:12:45;;;;;;;7.47;4.72;;;7.80;99.90;;;;;;5076572;28;20028;-71
2023/05/02 04:15:10;;;;;;;4.93;4.00;;;7.70;99.90;;;;;;5061336;28;20082;-72
2023/05/02 04:17:37;;;;;;;8.77;4.32;;;7.70;99.90;;;;;;5064392;28;20039;-72
2023/05/02 04:20:03;;;;;;;5.75;4.30;;;7.70;99.90;;;;;;5073196;28;20050;-71
2023/05/02 04:22:29;;;;;;;7.47;4.32;;;7.70;99.90;;;;;;5075309;28;20028;-72
2023/05/02 04:24:55;;;;;;;6.57;4.28;;;7.70;99.90;;;;;;5057372;28;20271;-72
2023/05/02 04:27:21;;;;;;;7.15;4.60;;;7.70;99.90;;;;;;5044724;28;20564;-72
2023/05/02 04:29:50;;;;;;;12.18;5.40;;;7.70;99.90;;;;;;5062856;28;20032;-72
2023/05/02 04:32:16;;;;;;;5.57;4.20;;;7.70;99.90;;;;;;5046407;28;20525;-71
2023/05/02 04:34:42;;;;;;;6.15;4.57;;;7.80;99.90;;;;;;5044537;28;20037;-72
2023/05/02 04:37:07;;;;;;;7.95;5.72;;;7.80;99.90;;;;;;5062923;28;20024;-72
2023/05/02 04:39:33;;;;;;;8.00;5.68;;;7.90;99.90;;;;;;5067980;28;20521;-72
2023/05/02 04:42:00;;;;;;;9.75;5.15;;;8.00;99.90;;;;;;5057689;28;20438;-72
2023/05/02 04:44:26;;;;;;;9.20;5.80;;;8.10;99.90;;;;;;5074844;28;20048;-71
2023/05/02 04:46:51;;;;;;;7.05;4.57;;;8.30;99.90;;;;;;5075049;28;20031;-72
2023/05/02 04:49:17;;;;;;;6.57;4.85;;;8.30;99.90;;;;;;5072756;28;20071;-72
2023/05/02 04:51:43;;;;;;;7.32;5.55;;;8.30;99.90;;;;;;5066836;28;20016;-72
2023/05/02 04:54:09;;;;;;;10.30;5.57;;;8.50;99.90;;;;;;5050614;28;20082;-72
2023/05/02 04:56:35;;;;;;;7.45;5.22;;;8.60;99.90;;;;;;5068102;28;20024;-71
2023/05/02 04:59:00;;;;;;;10.85;5.47;;;8.80;99.90;;;;;;5088164;28;20386;-71
2023/05/02 05:01:28;;;;;;;9.73;5.40;;;8.80;99.90;;;;;;5054667;28;20699;-72
2023/05/02 05:03:55;;;;;;;8.35;5.32;;;8.80;99.90;;;;;;5055750;28;20459;-72
2023/05/02 05:06:21;;;;;;;7.75;5.57;;;8.80;99.90;;;;;;5054590;28;20454;-72
2023/05/02 05:08:47;;;;;;;9.25;5.50;;;8.80;99.90;;;;;;5048113;28;20024;-71
2023/05/02 05:11:13;;;;;;;8.05;5.20;;;8.80;99.90;;;;;;5074789;28;20364;-72
2023/05/02 05:13:39;;;;;;;8.93;5.45;;;8.80;99.90;;;;;;5077085;28;20028;-72
2023/05/02 05:16:05;;;;;;;8.25;5.57;;;8.90;99.90;;;;;;5051352;28;20136;-71
2023/05/02 05:18:31;;;;;;;9.75;5.97;;;9.00;99.90;;;;;;5073265;28;20461;-72
2023/05/02 05:20:56;;;;;;;8.52;5.32;;;9.10;99.90;;;;;;5074926;28;20589;-71
2023/05/02 05:23:22;;;;;;;8.50;5.90;;;9.20;99.90;;;;;;5075764;28;20159;-72
2023/05/02 05:25:48;;;;;;;9.93;6.20;;;9.40;99.90;;;;;;5078034;28;20153;-72
2023/05/02 05:28:13;;;;;;;11.95;6.47;;;9.50;99.90;;;;;;5076760;28;20020;-72
2023/05/02 05:30:39;;;;;;;6.97;5.40;;;9.70;99.90;;;;;;5053581;28;20089;-72
2023/05/02 05:33:04;;;;;;;8.60;5.95;;;9.80;99.90;;;;;;5067078;28;20029;-72
2023/05/02 05:35:31;;;;;;;12.10;6.25;;;9.90;99.90;;;;;;5055347;28;20044;-72
2023/05/02 05:37:57;;;;;;;9.80;5.95;;;10.00;99.90;;;;;;5062388;28;20488;-71
2023/05/02 05:40:23;;;;;;;8.32;5.60;;;10.10;99.90;;;;;;5058781;28;20043;-72
2023/05/02 05:42:48;;;;;;;10.30;6.20;;;10.30;99.90;;;;;;5074098;28;20384;-72
2023/05/02 05:45:16;;;;;;;9.40;6.78;;;10.40;99.90;;;;;;5057529;28;20559;-72
2023/05/02 05:47:41;;;;;;;8.90;6.25;;;10.50;99.90;;;;;;5083796;28;20030;-72
2023/05/02 05:50:08;;;;;;;9.88;6.18;;;10.70;99.90;;;;;;5094955;28;20227;-71
2023/05/02 05:52:33;;;;;;;9.15;6.13;;;10.70;99.90;;;;;;5047720;28;21819;-72
2023/05/02 05:54:59;;;;;;;10.75;5.93;;;10.90;99.90;;;;;;5078355;28;20056;-72
2023/05/02 05:57:25;;;;;;;8.57;5.45;;;11.20;99.90;;;;;;5059600;28;20055;-72
2023/05/02 05:59:51;;;;;;;7.45;5.25;;;11.40;99.90;;;;;;5077694;28;20056;-72
2023/05/02 06:02:18;;;;;;;10.13;5.28;;;11.60;99.90;;;;;;5077064;28;20077;-72
2023/05/02 06:04:44;;;;;;;7.60;5.57;;;11.70;99.90;;;;;;5081847;28;20104;-72
2023/05/02 06:07:10;;;;;;;16.95;12.20;;;11.80;99.90;;;;;;5083603;28;20026;-72
2023/05/02 06:09:36;;;;;;;27.67;13.93;;;12.00;99.90;;;;;;5071969;28;20035;-72
2023/05/02 06:12:02;;;;;;;13.13;8.00;;;12.30;99.90;;;;;;5080618;28;20055;-72
2023/05/02 06:14:27;;;;;;;19.13;9.50;;;12.40;99.90;;;;;;5080296;28;20051;-72
2023/05/02 06:16:53;;;;;;;16.20;8.85;;;12.60;99.90;;;;;;5067292;28;20142;-72
2023/05/02 06:19:18;;;;;;;12.15;7.07;;;12.80;99.90;;;;;;5077734;28;20425;-72
2023/05/02 06:21:44;;;;;;;13.63;7.53;;;12.90;99.90;;;;;;5081480;28;20116;-72
2023/05/02 06:24:09;;;;;;;27.20;19.15;;;13.10;99.90;;;;;;5078274;28;20483;-72
2023/05/02 06:26:35;;;;;;;15.60;9.43;;;13.20;99.90;;;;;;5078791;28;20059;-72
2023/05/02 06:29:01;;;;;;;13.57;8.30;;;13.40;99.90;;;;;;5076660;28;20410;-72
2023/05/02 06:31:27;;;;;;;11.75;7.38;;;13.50;99.90;;;;;;5077478;28;20032;-72
2023/05/02 06:33:52;;;;;;;11.85;6.90;;;13.60;99.90;;;;;;5078899;28;20028;-71
2023/05/02 06:36:18;;;;;;;12.10;6.47;;;13.70;99.90;;;;;;5077234;28;20050;-71
2023/05/02 06:38:44;;;;;;;10.07;6.32;;;13.70;99.90;;;;;;5080195;28;20159;-72
2023/05/02 06:41:15;;;;;;;11.20;5.65;;;13.90;99.90;;;;;;5073751;28;20066;-71
2023/05/02 06:43:41;;;;;;;10.95;6.20;;;14.00;99.90;;;;;;5070687;28;20054;-72
2023/05/02 06:46:07;;;;;;;10.35;5.32;;;13.90;99.90;;;;;;5066457;28;20032;-71
2023/05/02 06:48:36;;;;;;;8.45;4.55;;;13.70;99.90;;;;;;5070375;28;20051;-71
2023/05/02 06:51:03;;;;;;;8.85;5.00;;;13.90;99.90;;;;;;5078882;28;20028;-71
2023/05/02 06:53:29;;;;;;;8.93;4.28;;;14.00;99.90;;;;;;5070493;28;20081;-71
2023/05/02 06:55:55;;;;;;;9.60;4.13;;;14.20;99.90;;;;;;5081542;28;20106;-71
2023/05/02 06:58:20;;;;;;;11.60;4.93;;;14.50;99.90;;;;;;5060474;28;20107;-72
2023/05/02 07:00:47;;;;;;;10.82;4.53;;;14.40;99.90;;;;;;5079260;28;20118;-71
2023/05/02 07:03:13;;;;;;;9.00;4.38;;;14.50;99.90;;;;;;5066768;28;20044;-71
2023/05/02 07:05:39;;;;;;;11.63;4.20;;;14.40;99.90;;;;;;5074629;28;20175;-72
2023/05/02 07:08:05;;;;;;;9.13;3.70;;;14.30;99.90;;;;;;5072346;28;20028;-71
2023/05/02 07:10:31;;;;;;;9.65;4.20;;;14.30;99.90;;;;;;5052161;28;20089;-71
2023/05/02 07:12:56;;;;;;;9.85;4.43;;;14.30;99.90;;;;;;5051422;28;20028;-72
2023/05/02 07:15:22;;;;;;;12.07;4.10;;;14.20;99.90;;;;;;5049351;28;20055;-71
2023/05/02 07:17:48;;;;;;;7.60;4.20;;;14.20;99.90;;;;;;5050525;28;20043;-71
2023/05/02 07:20:15;;;;;;;10.57;4.85;;;14.10;99.90;;;;;;5072484;28;20073;-71
2023/05/02 07:22:41;;;;;;;8.68;4.63;;;13.90;99.90;;;;;;5059487;28;20469;-73
2023/05/02 07:25:07;;;;;;;12.63;4.30;;;13.70;99.90;;;;;;5080204;28;20111;-71
2023/05/02 07:27:32;;;;;;;7.15;4.10;;;13.80;99.90;;;;;;5075194;28;20050;-71
2023/05/02 07:29:58;;;;;;;14.77;4.18;;;13.70;99.90;;;;;;5076824;28;20067;-72
2023/05/02 07:32:25;;;;;;;10.73;4.20;;;13.60;99.90;;;;;;5075448;28;20356;-71
2023/05/02 07:34:53;;;;;;;12.82;4.28;;;13.40;99.90;;;;;;5060192;28;20059;-71
2023/05/02 07:37:20;;;;;;;9.07;4.22;;;13.30;99.90;;;;;;5076668;28;20062;-71
2023/05/02 07:39:45;;;;;;;13.95;4.22;;;13.30;99.90;;;;;;4718150;28;10000597;-71
2023/05/02 07:42:11;;;;;;;7.68;3.58;;;13.30;99.90;;;;;;5060336;28;20024;-72
2023/05/02 07:44:37;;;;;;;9.85;3.88;;;13.30;99.90;;;;;;5066730;28;20067;-72
2023/05/02 07:47:03;;;;;;;9.75;3.55;;;13.20;99.90;;;;;;5050908;28;20035;-70
2023/05/02 07:49:29;;;;;;;8.75;3.45;;;13.40;99.90;;;;;;5073009;28;20028;-72
2023/05/02 07:51:56;;;;;;;13.43;3.72;;;13.70;99.90;;;;;;5051634;28;20024;-72
2023/05/02 07:54:21;;;;;;;11.82;3.17;;;13.90;99.90;;;;;;5053771;28;20055;-72
2023/05/02 07:56:47;;;;;;;6.63;2.15;;;14.20;99.90;;;;;;5049655;28;20472;-72
2023/05/02 07:59:13;;;;;;;6.18;2.15;;;14.00;99.90;;;;;;5072178;28;20026;-72
2023/05/02 08:01:40;;;;;;;4.63;1.90;;;13.90;99.90;;;;;;5069925;28;20028;-72
2023/05/02 08:04:06;;;;;;;6.53;2.30;;;14.00;99.90;;;;;;5076193;28;20028;-72
2023/05/02 08:06:32;;;;;;;6.68;2.15;;;14.00;99.90;;;;;;5059860;28;20135;-72
2023/05/02 08:08:58;;;;;;;5.03;2.30;;;14.30;99.90;;;;;;5046428;28;20032;-72
2023/05/02 08:11:24;;;;;;;5.18;2.42;;;14.20;99.90;;;;;;5072513;28;20036;-72
2023/05/02 08:13:52;;;;;;;5.00;2.15;;;14.40;99.90;;;;;;5071843;28;20036;-72
2023/05/02 08:16:18;;;;;;;8.32;2.63;;;15.00;99.90;;;;;;5057868;28;20035;-72
2023/05/02 08:18:45;;;;;;;7.30;2.70;;;15.10;99.90;;;;;;5072134;22;20056;-72
2023/05/02 08:21:11;;;;;;;7.97;2.30;;;14.90;99.90;;;;;;5049524;28;20039;-71
2023/05/02 08:23:36;;;;;;;8.95;2.63;;;14.50;99.90;;;;;;5050189;28;20033;-72
2023/05/02 08:26:02;;;;;;;6.85;2.80;;;14.20;99.90;;;;;;5048355;28;20105;-71
2023/05/02 08:28:29;;;;;;;6.20;2.50;;;14.20;99.90;;;;;;5052070;28;20551;-72
2023/05/02 08:30:55;;;;;;;6.13;2.97;;;14.00;99.90;;;;;;5050237;28;20499;-72
2023/05/02 08:33:20;;;;;;;4.15;2.83;;;13.70;99.90;;;;;;5031575;28;20029;-72
2023/05/02 08:35:46;;;;;;;12.23;3.00;;;13.50;99.90;;;;;;5030404;28;20175;-72
2023/05/02 08:38:12;;;;;;;11.95;3.00;;;13.40;99.90;;;;;;5046300;28;20028;-72
2023/05/02 08:40:38;;;;;;;5.30;2.58;;;13.50;99.90;;;;;;5043403;28;20035;-72
2023/05/02 08:43:07;;;;;;;7.28;2.65;;;13.50;99.90;;;;;;5046162;28;20024;-72
2023/05/02 08:45:40;;;;;;;6.75;2.28;;;13.70;99.90;;;;;;5046109;28;20021;-72
2023/05/02 08:48:09;;;;;;;5.80;2.80;;;13.80;99.90;;;;;;5023944;28;20380;-72
2023/05/02 08:50:37;;;;;;;6.07;2.10;;;14.00;99.90;;;;;;5048731;28;20028;-72
2023/05/02 08:53:08;;;;;;;6.90;2.40;;;14.10;99.90;;;;;;5033227;28;20038;-72
2023/05/02 08:55:38;;;;;;;7.00;2.25;;;14.50;99.90;;;;;;5040099;28;20045;-72
2023/05/02 08:58:05;;;;;;;7.07;1.98;;;14.60;99.90;;;;;;5037319;28;20127;-73
2023/05/02 09:00:32;;;;;;;5.43;2.20;;;14.60;99.90;;;;;;5050905;28;20388;-72
2023/05/02 09:03:16;;;;;;;4.30;1.63;;;14.40;99.90;;;;;;5051725;28;20136;-72
2023/05/02 09:05:41;;;;;;;4.90;1.73;;;14.50;99.90;;;;;;5057258;28;20460;-72
2023/05/02 09:08:07;;;;;;;7.57;1.98;;;14.50;99.90;;;;;;5047428;28;20055;-72
2023/05/02 09:10:38;;;;;;;3.58;1.77;;;14.50;99.90;;;;;;5051413;28;20163;-72
2023/05/02 09:13:39;;;;;;;2.67;1.50;;;14.40;99.90;;;;;;5062011;28;20035;-72
2023/05/02 09:16:07;;;;;;;8.35;2.33;;;14.30;99.90;;;;;;4971317;28;20129;-72
2023/05/02 09:18:44;;;;;;;7.65;2.08;;;14.40;99.90;;;;;;5031954;28;20055;-71
2023/05/02 09:21:16;;;;;;;4.18;1.80;;;14.30;99.90;;;;;;5051007;28;20031;-72
2023/05/02 09:23:42;;;;;;;5.88;2.10;;;14.50;99.90;;;;;;5055191;28;20028;-72
2023/05/02 09:26:23;;;;;;;3.33;1.77;;;14.60;99.90;;;;;;5036793;28;20073;-72
2023/05/02 09:28:53;;;;;;;3.25;1.77;;;14.60;99.90;;;;;;5044458;28;20423;-71
2023/05/02 09:31:22;;;;;;;7.45;2.08;;;15.00;99.90;;;;;;5038854;28;20036;-72
2023/05/02 09:33:48;;;;;;;5.30;1.90;;;15.10;99.90;;;;;;5036933;28;20360;-72
2023/05/02 09:36:16;;;;;;;6.97;2.15;;;15.10;99.90;;;;;;5049057;28;20039;-71
2023/05/02 09:38:43;;;;;;;4.80;2.00;;;15.20;99.90;;;;;;5062551;28;20572;-72
2023/05/02 09:41:09;;;;;;;7.65;2.00;;;15.20;99.90;;;;;;5059137;28;20553;-72
2023/05/02 09:43:35;;;;;;;3.58;1.88;;;15.30;99.90;;;;;;5057005;28;20192;-71
2023/05/02 09:46:03;;;;;;;10.18;2.03;;;15.50;99.90;;;;;;5055083;28;20480;-72
2023/05/02 09:48:29;;;;;;;6.30;1.92;;;15.60;99.90;;;;;;4707118;28;10000108;-72
2023/05/02 09:50:56;;;;;;;8.02;2.30;;;15.60;99.90;;;;;;5038498;28;20570;-72
2023/05/02 09:53:25;;;;;;;5.88;2.08;;;15.70;99.90;;;;;;5055245;28;20513;-72
2023/05/02 09:56:04;;;;;;;7.43;2.30;;;15.50;99.90;;;;;;5058009;28;20255;-72
2023/05/02 09:58:30;;;;;;;7.25;1.80;;;15.40;99.90;;;;;;5043586;28;20024;-72
2023/05/02 10:00:56;;;;;;;7.03;2.08;;;15.60;99.90;;;;;;5056747;28;20187;-72
2023/05/02 10:03:24;;;;;;;8.00;1.95;;;15.40;99.90;;;;;;5061843;28;20271;-72
2023/05/02 10:05:52;;;;;;;6.57;2.00;;;15.80;99.90;;;;;;5061481;28;20103;-72
2023/05/02 10:08:19;;;;;;;6.05;1.98;;;15.90;99.90;;;;;;5058429;28;20025;-72
2023/05/02 10:10:56;;;;;;;9.23;2.20;;;15.80;99.90;;;;;;5059873;28;20082;-72
2023/05/02 10:13:26;;;;;;;7.10;2.13;;;15.60;99.90;;;;;;5060263;28;20025;-72
2023/05/02 10:16:11;;;;;;;9.93;2.38;;;15.60;99.90;;;;;;5058809;28;20107;-72
2023/05/02 10:18:55;;;;;;;7.05;2.38;;;15.10;99.90;;;;;;5038855;28;20037;-72
2023/05/02 10:21:28;;;;;;;6.65;2.10;;;14.80;99.90;;;;;;5060707;28;20424;-72
2023/05/02 10:23:55;;;;;;;7.35;2.35;;;15.20;99.90;;;;;;5042736;28;20033;-72
2023/05/02 10:26:22;;;;;;;4.68;1.90;;;15.40;99.90;;;;;;5057817;28;20492;-72
2023/05/02 10:28:49;;;;;;;9.45;2.30;;;15.50;99.90;;;;;;5055184;28;20016;-72
2023/05/02 10:31:16;;;;;;;11.00;2.58;;;15.30;99.90;;;;;;5059159;28;20127;-72
2023/05/02 10:33:42;;;;;;;9.32;2.60;;;15.50;99.90;;;;;;5057232;28;20056;-72
2023/05/02 10:36:11;;;;;;;8.32;2.50;;;15.50;99.90;;;;;;5036895;28;20190;-70
2023/05/02 10:38:38;;;;;;;7.60;2.17;;;15.70;99.90;;;;;;5056054;28;20116;-72
2023/05/02 10:41:25;;;;;;;6.05;2.20;;;15.40;99.90;;;;;;5058227;28;20104;-72
2023/05/02 10:43:52;;;;;;;6.97;2.42;;;15.30;99.90;;;;;;5049708;28;20116;-71
2023/05/02 10:46:35;;;;;;;10.55;2.22;;;15.50;99.90;;;;;;5052767;28;20514;-72
2023/05/02 10:49:10;;;;;;;9.98;2.33;;;15.50;99.90;;;;;;5058213;28;20488;-72
2023/05/02 10:51:38;;;;;;;12.20;2.67;;;15.30;99.90;;;;;;5057575;28;20020;-72
2023/05/02 10:54:19;;;;;;;11.95;2.88;;;15.20;99.90;;;;;;5058632;28;20407;-72
2023/05/02 10:57:02;;;;;;;11.18;2.70;;;15.10;99.90;;;;;;5051796;28;20036;-72
2023/05/02 10:59:39;;;;;;;6.30;2.15;;;15.10;99.90;;;;;;5056161;28;20029;-72
2023/05/02 11:02:22;;;;;;;9.50;2.20;;;15.50;99.90;;;;;;5055759;28;20024;-71
2023/05/02 11:05:01;;;;;;;11.70;2.88;;;15.90;99.90;;;;;;5057570;28;20435;-72
2023/05/02 11:07:27;;;;;;;14.35;3.40;;;16.00;99.40;;;;;;5056669;28;20024;-71
2023/05/02 11:10:26;;;;;;;7.10;2.65;;;16.10;99.30;;;;;;5056024;28;20039;-72
2023/05/02 11:12:59;;;;;;;8.68;2.38;;;16.50;98.10;;;;;;5016857;28;20048;-73
2023/05/02 11:15:28;;;;;;;7.78;2.13;;;16.90;97.80;;;;;;5058061;28;20040;-72
2023/05/02 11:18:06;;;;;;;6.75;2.10;;;17.60;94.30;;;;;;5059866;28;20060;-72
2023/05/02 11:20:33;;;;;;;8.10;2.08;;;18.20;94.20;;;;;;5045340;28;20523;-72
2023/05/02 11:23:24;;;;;;;6.05;1.75;;;18.50;88.00;;;;;;5057401;28;20371;-69
2023/05/02 11:25:50;;;;;;;;;;;19.10;82.40;;;;;;5056378;28;20028;-72
2023/05/02 11:28:46;;;;;;;4.43;1.45;;;19.50;69.90;;;;;;5058752;28;19913;-72
2023/05/02 11:31:27;;;;;;;5.78;1.38;;;19.50;75.70;;;;;;5049547;28;20040;-72
2023/05/02 11:33:57;;;;;;;7.65;1.48;;;19.40;74.10;;;;;;5051263;28;20108;-72
2023/05/02 11:36:32;;;;;;;3.70;1.30;;;18.80;78.10;;;;;;5037579;28;20041;-72
2023/05/02 11:39:02;;;;;;;4.43;1.42;;;18.60;77.80;;;;;;5051806;28;20025;-72
2023/05/02 11:41:41;;;;;;;9.25;1.73;;;18.90;87.10;;;;;;5053908;28;20617;-72
2023/05/02 11:44:07;;;;;;;5.03;1.50;;;18.90;84.90;;;;;;5059113;28;20127;-72
2023/05/02 11:46:35;;;;;;;4.50;1.58;;;18.70;76.80;;;;;;5056170;28;20107;-72
2023/05/02 11:49:01;;;;;;;6.03;1.42;;;18.90;77.50;;;;;;5057268;28;20491;-72
2023/05/02 11:51:27;;;;;;;7.85;1.67;;;19.20;78.10;;;;;;5039545;28;20060;-72
2023/05/02 11:53:53;;;;;;;7.25;1.58;;;19.00;70.50;;;;;;5056387;28;20036;-72
2023/05/02 11:56:23;;;;;;;6.60;1.27;;;19.20;74.60;;;;;;5052118;28;20407;-72
2023/05/02 11:59:03;;;;;;;8.00;1.70;;;19.40;75.10;;;;;;5033892;28;20028;-72
2023/05/02 12:01:29;;;;;;;5.55;1.58;;;19.70;71.60;;;;;;5060829;28;20034;-72
2023/05/02 12:04:02;;;;;;;5.78;1.20;;;19.30;66.10;;;;;;5057331;28;20025;-71
2023/05/02 12:06:28;;;;;;;4.18;1.30;;;20.00;65.00;;;;;;5056609;28;20032;-72
2023/05/02 12:09:05;;;;;;;10.60;1.70;;;20.00;60.70;;;;;;5056215;28;20383;-72
2023/05/02 12:11:32;;;;;;;3.33;1.73;;;20.10;58.90;;;;;;5042974;28;20021;-71
2023/05/02 12:13:57;;;;;;;9.25;1.38;;;20.40;64.30;;;;;;5052675;28;20197;-71
2023/05/02 12:16:23;;;;;;;4.25;1.40;;;20.90;59.10;;;;;;5052823;28;20440;-72
2023/05/02 12:18:49;;;;;;;4.38;1.42;;;21.00;57.00;;;;;;5056090;28;20044;-72
2023/05/02 12:21:15;;;;;;;6.10;1.30;;;20.90;58.30;;;;;;5057723;28;20090;-71
2023/05/02 12:23:41;;;;;;;5.18;1.58;;;21.60;55.70;;;;;;5029876;28;20032;-72
2023/05/02 12:26:36;;;;;;;5.43;1.38;;;21.00;55.30;;;;;;5051353;28;20039;-72
2023/05/02 12:29:02;;;;;;;9.20;2.13;;;21.00;56.30;;;;;;5031090;28;20036;-72
2023/05/02 12:31:29;;;;;;;4.85;1.50;;;20.40;62.30;;;;;;5031152;28;20548;-72
2023/05/02 12:33:58;;;;;;;8.52;1.70;;;20.50;62.60;;;;;;5047920;28;20048;-71
2023/05/02 12:36:23;;;;;;;4.85;1.60;;;20.40;57.80;;;;;;5052343;28;20052;-70
2023/05/02 12:38:51;;;;;;;7.90;1.80;;;20.20;57.70;;;;;;5051485;28;20059;-71
2023/05/02 12:41:28;;;;;;;5.60;2.22;;;19.80;58.30;;;;;;5045547;28;20544;-71
2023/05/02 12:43:54;;;;;;;6.85;1.85;;;19.70;60.30;;;;;;5041159;28;20035;-71
2023/05/02 12:46:20;;;;;;;4.90;1.30;;;19.50;69.10;;;;;;5048846;28;20032;-70
2023/05/02 12:48:46;;;;;;;5.03;1.20;;;19.80;66.50;;;;;;5029601;28;20068;-71
2023/05/02 12:51:23;;;;;;;7.45;1.70;;;20.20;70.40;;;;;;5050388;28;20044;-71
2023/05/02 12:53:48;;;;;;;4.78;1.50;;;20.50;60.80;;;;;;5053562;28;20050;-71
2023/05/02 12:56:15;;;;;;;7.18;1.70;;;20.50;58.50;;;;;;5050470;28;20496;-70
2023/05/02 12:58:46;;;;;;;8.45;1.95;;;20.60;56.20;;;;;;5051852;28;20648;-72